M I D A S
Marine Information and Data Acquisition System
Tripno 273 of the Zeeleeuw from 2002-05-03 06:46:01 to 2002-05-03 16:02:10
Back to CruiseResearch ActivitiesStationsMapUnderway DataData graphs

EquipmentUnitsComment
TimeDGPSUTC
LatitudeDGPSDM.mWGS84
LongitudeDGPSDM.mWGS84
HeadingGyrodeg 
SOGDGPSknotsSpeed over ground
COGDGPSdegCourse over ground
DepthEcho soundermeters200 kHz
Missing or incorrect values are displayed as -999
Navigation data collected by the RV Zeeleeuw from 2002-05-03 06:46:01 to 2002-05-03 16:02:10
                                                                                    Next 1000 lines
Time Latitude Longitude Heading SOG COG Depth
2002-05-03 06:46:11 51°13.691 2°55.869 101 2.4 280 -999
2002-05-03 06:46:17 51°13.692 2°55.862 100.5 2.5 279.9 -999
2002-05-03 06:46:21 51°13.692 2°55.857 100 2.7 279 -999
2002-05-03 06:46:26 51°13.693 2°55.85 99.5 2.9 278.5 -999
2002-05-03 06:46:31 51°13.694 2°55.844 99 3 278 -999
2002-05-03 06:46:36 51°13.694 2°55.836 98.7 3.1 277.7 -999
2002-05-03 06:46:41 51°13.695 2°55.829 98.3 3.3 276.6 -999
2002-05-03 06:46:46 51°13.695 2°55.821 98 3.5 276.1 -999
2002-05-03 06:46:51 51°13.696 2°55.813 98 3.5 276.3 -999
2002-05-03 06:46:56 51°13.696 2°55.806 98.3 3.5 276.2 -999
2002-05-03 06:47:02 51°13.697 2°55.797 98.7 3.5 276.8 -999
2002-05-03 06:47:06 51°13.698 2°55.791 99 3.4 276.9 -999
2002-05-03 06:47:10 51°13.698 2°55.786 99.3 3.3 277.2 13
2002-05-03 06:47:16 51°13.699 2°55.777 99.5 3.2 277.4 14
2002-05-03 06:47:21 51°13.699 2°55.77 100 3.1 277.7 -999
2002-05-03 06:47:26 51°13.7 2°55.764 100.7 3 278.3 15.5
2002-05-03 06:47:30 51°13.701 2°55.76 101.5 2.7 279.8 15.8
2002-05-03 06:47:36 51°13.701 2°55.756 101.2 1.9 281.9 15.7
2002-05-03 06:47:40 51°13.702 2°55.756 97.8 1.1 287.4 15.6
2002-05-03 06:47:45 51°13.703 2°55.756 91.8 0.4 1 15.5
2002-05-03 06:47:50 51°13.703 2°55.758 83.8 0.5 51 15.4
2002-05-03 06:47:56 51°13.704 2°55.759 78.2 0.7 51.7 15.5
2002-05-03 06:48:00 51°13.704 2°55.76 74.3 0.7 49.8 15.3
2002-05-03 06:48:05 51°13.705 2°55.76 71.5 0.5 39.4 15.2
2002-05-03 06:48:10 51°13.705 2°55.76 69 0.3 11.7 15.2
2002-05-03 06:48:15 51°13.705 2°55.759 66.7 0.4 277.6 15.3
2002-05-03 06:48:20 51°13.705 2°55.756 65.3 0.9 257.6 15.6
2002-05-03 06:48:26 51°13.704 2°55.752 64.5 1.4 251.6 15.4
2002-05-03 06:48:30 51°13.703 2°55.749 64.3 1.8 248.4 14.9
2002-05-03 06:48:36 51°13.701 2°55.744 64.3 2 246 -999
2002-05-03 06:48:41 51°13.7 2°55.741 64.3 2 243.9 -999
2002-05-03 06:48:46 51°13.699 2°55.737 64.2 1.8 244.4 -999
2002-05-03 06:48:51 51°13.699 2°55.735 63 1.2 252 -999
2002-05-03 06:48:56 51°13.7 2°55.736 57.5 0.5 272.9 -999
2002-05-03 06:49:01 51°13.701 2°55.737 49.3 0.8 29.9 -999
2002-05-03 06:49:06 51°13.702 2°55.739 41.2 1.1 36.1 -999
2002-05-03 06:49:11 51°13.704 2°55.74 35.8 1.1 29.5 -999
2002-05-03 06:49:16 51°13.705 2°55.74 31.8 1 23.3 -999
2002-05-03 06:49:21 51°13.706 2°55.74 28.8 0.7 16.5 -999
2002-05-03 06:49:26 51°13.706 2°55.74 25.8 0.2 353.5 -999
2002-05-03 06:49:31 51°13.705 2°55.739 23.5 0.4 222.1 -999
2002-05-03 06:49:36 51°13.704 2°55.738 22 0.8 211.2 14.5
2002-05-03 06:49:40 51°13.703 2°55.737 21.3 1.1 207.7 14.6
2002-05-03 06:49:46 51°13.7 2°55.736 20.8 1.3 203.9 -999
2002-05-03 06:49:51 51°13.698 2°55.734 20.5 1.4 203.4 -999
2002-05-03 06:49:56 51°13.696 2°55.733 20 1.5 203.5 -999
2002-05-03 06:50:01 51°13.695 2°55.731 19.5 1.5 203 -999
2002-05-03 06:50:06 51°13.692 2°55.73 19 1.6 203.7 -999
2002-05-03 06:50:11 51°13.69 2°55.729 18.8 1.6 202.7 -999
2002-05-03 06:50:16 51°13.688 2°55.727 18.3 1.6 203.1 -999
2002-05-03 06:50:21 51°13.686 2°55.726 18.2 1.5 202.2 -999
2002-05-03 06:50:26 51°13.685 2°55.725 17.5 1.5 203.3 14.7
2002-05-03 06:50:30 51°13.683 2°55.724 16.8 1.3 206.2 14.4
2002-05-03 06:50:36 51°13.683 2°55.723 15 0.7 216.8 14
2002-05-03 06:50:41 51°13.684 2°55.723 11.8 0.3 261.4 14
2002-05-03 06:50:45 51°13.685 2°55.723 7.2 0.8 350.4 14.1
2002-05-03 06:50:50 51°13.688 2°55.722 3.2 1.4 353.9 13.9
2002-05-03 06:50:55 51°13.691 2°55.722 0.8 2.2 354.5 14.6
2002-05-03 06:51:01 51°13.696 2°55.721 359.7 2.6 354.1 14.8
2002-05-03 06:51:05 51°13.7 2°55.72 358.3 3.2 353.3 13.8
2002-05-03 06:51:10 51°13.705 2°55.719 356 3.5 352.3 13.4
2002-05-03 06:51:16 51°13.712 2°55.717 353 4.1 349.2 12.8
2002-05-03 06:51:20 51°13.717 2°55.714 349.8 4.4 346.4 12.6
2002-05-03 06:51:25 51°13.724 2°55.711 347.3 4.9 343.3 12.1
2002-05-03 06:51:30 51°13.731 2°55.707 345.2 5.1 341.5 11.6
2002-05-03 06:51:35 51°13.738 2°55.703 344.5 5.5 340.9 11.6
2002-05-03 06:51:40 51°13.746 2°55.698 344.3 5.7 340.6 11.4
2002-05-03 06:51:45 51°13.754 2°55.694 344.7 5.9 340.9 11.6
2002-05-03 06:51:51 51°13.763 2°55.689 343.7 6 340.6 11.6
2002-05-03 06:51:56 51°13.771 2°55.684 342.5 6 339.8 11.6
2002-05-03 06:52:01 51°13.778 2°55.679 341 5.9 338.6 11.6
2002-05-03 06:52:06 51°13.786 2°55.673 339.7 5.9 336.9 11.7
2002-05-03 06:52:11 51°13.794 2°55.667 338.7 6.1 335.9 11.8
2002-05-03 06:52:15 51°13.8 2°55.662 337.7 6.3 334.9 11.9
2002-05-03 06:52:20 51°13.808 2°55.657 337 6.4 334.7 11.8
2002-05-03 06:52:25 51°13.817 2°55.65 336.5 6.7 334.1 12
2002-05-03 06:52:31 51°13.827 2°55.642 336.2 6.8 333.7 11.9
2002-05-03 06:52:36 51°13.836 2°55.635 335.7 6.9 333.3 11.8
2002-05-03 06:52:40 51°13.843 2°55.629 336 7 333.2 11.7
2002-05-03 06:52:46 51°13.854 2°55.621 336.5 7.1 333.7 11.2
2002-05-03 06:52:51 51°13.863 2°55.613 337.2 7.2 333.8 11.6
2002-05-03 06:52:56 51°13.872 2°55.606 337 7.2 334 11.5
2002-05-03 06:53:00 51°13.879 2°55.6 336.2 7.3 333.9 11.4
2002-05-03 06:53:05 51°13.889 2°55.593 335.7 7.4 333.2 11.6
2002-05-03 06:53:10 51°13.898 2°55.586 336.2 7.5 333.6 11.7
2002-05-03 06:53:16 51°13.909 2°55.577 336.5 7.5 333.8 11.8
2002-05-03 06:53:20 51°13.916 2°55.571 337.5 7.5 334.1 11.8
2002-05-03 06:53:26 51°13.928 2°55.563 338.2 7.5 334.3 11.7
2002-05-03 06:53:30 51°13.935 2°55.557 338.8 7.5 335.1 11.7
2002-05-03 06:53:35 51°13.945 2°55.551 339 7.5 335.6 11.6
2002-05-03 06:53:40 51°13.954 2°55.544 339.2 7.6 335.8 11.7
2002-05-03 06:53:46 51°13.965 2°55.536 339.3 7.6 335.9 11.7
2002-05-03 06:53:50 51°13.973 2°55.53 339.3 7.6 336 11.8
2002-05-03 06:53:56 51°13.985 2°55.522 339.3 7.6 336.1 11.8
2002-05-03 06:54:01 51°13.995 2°55.515 339.2 7.6 336 12.1
2002-05-03 06:54:06 51°14.004 2°55.508 339 7.5 335.8 12.1
2002-05-03 06:54:11 51°14.014 2°55.501 339.2 7.6 335.6 12.2
2002-05-03 06:54:15 51°14.021 2°55.495 339.8 7.6 336 12.2
2002-05-03 06:54:20 51°14.031 2°55.488 340.3 7.6 336.5 12.2
2002-05-03 06:54:26 51°14.043 2°55.48 340 7.6 336.6 12.1
2002-05-03 06:54:31 51°14.052 2°55.474 339.5 7.6 336.4 12.1
2002-05-03 06:54:35 51°14.06 2°55.469 338.5 7.6 335.5 12.2
2002-05-03 06:54:41 51°14.071 2°55.461 337.5 7.6 334.8 12.2
2002-05-03 06:54:46 51°14.081 2°55.453 336.7 7.6 334.1 12.2
2002-05-03 06:54:50 51°14.088 2°55.448 336.2 7.6 333.7 12.2
2002-05-03 06:54:56 51°14.1 2°55.439 336.2 7.6 333.2 12.2
2002-05-03 06:55:00 51°14.107 2°55.433 336 7.6 333.1 12.2
2002-05-03 06:55:06 51°14.118 2°55.423 335.2 7.6 332.3 12.3
2002-05-03 06:55:11 51°14.128 2°55.415 334.3 7.6 331.9 12.2
2002-05-03 06:55:15 51°14.136 2°55.409 334 7.7 331.2 12.2
2002-05-03 06:55:20 51°14.145 2°55.401 333.8 7.7 330.9 12.3
2002-05-03 06:55:25 51°14.154 2°55.392 333.3 7.6 330 12.2
2002-05-03 06:55:30 51°14.163 2°55.383 333 7.6 329.7 12.3
2002-05-03 06:55:36 51°14.174 2°55.373 332.2 7.7 329.3 12.4
2002-05-03 06:55:41 51°14.183 2°55.364 331.3 7.7 328.9 12.4
2002-05-03 06:55:46 51°14.192 2°55.355 330 7.7 327.6 12.5
2002-05-03 06:55:50 51°14.199 2°55.347 328.7 7.7 326.7 12.4
2002-05-03 06:55:55 51°14.208 2°55.337 327.5 7.7 325.3 12.3
2002-05-03 06:56:00 51°14.217 2°55.327 326.7 7.7 324.5 12.5
2002-05-03 06:56:05 51°14.225 2°55.316 325.8 7.6 323 12.2
2002-05-03 06:56:10 51°14.234 2°55.306 325.2 7.7 322.3 12.3
2002-05-03 06:56:16 51°14.244 2°55.293 324.2 7.8 321.8 12.3
2002-05-03 06:56:20 51°14.25 2°55.285 323.3 7.8 321.4 12
2002-05-03 06:56:25 51°14.258 2°55.274 322.5 7.8 320 11.6
2002-05-03 06:56:30 51°14.267 2°55.262 321.2 7.8 319.1 12
2002-05-03 06:56:36 51°14.276 2°55.248 319.3 7.8 317.3 11.9
2002-05-03 06:56:40 51°14.282 2°55.238 317.5 7.8 315.6 12.3
2002-05-03 06:56:46 51°14.29 2°55.222 315.3 7.8 313 12.4
2002-05-03 06:56:50 51°14.296 2°55.212 313.3 7.8 311.5 12.3
2002-05-03 06:56:55 51°14.303 2°55.198 311.2 7.8 309.3 12
2002-05-03 06:57:00 51°14.309 2°55.185 310.5 7.7 308.1 11.9
2002-05-03 06:57:06 51°14.317 2°55.169 310.7 7.8 307.8 12.2
2002-05-03 06:57:10 51°14.323 2°55.158 310.8 7.8 307.9 12.2
2002-05-03 06:57:15 51°14.33 2°55.144 311.2 7.9 308.5 11.7
2002-05-03 06:57:20 51°14.336 2°55.13 311.7 7.9 308.4 11.8
2002-05-03 06:57:26 51°14.344 2°55.114 312.3 7.9 308.2 11.8
2002-05-03 06:57:31 51°14.351 2°55.1 312.5 7.8 308 11.7
2002-05-03 06:57:35 51°14.357 2°55.089 313.2 7.8 308.4 11.9
2002-05-03 06:57:40 51°14.364 2°55.076 313.7 7.9 308.8 12
2002-05-03 06:57:45 51°14.371 2°55.062 314.2 7.9 309.6 12
2002-05-03 06:57:50 51°14.378 2°55.049 315 7.8 310.1 11.6
2002-05-03 06:57:55 51°14.385 2°55.036 316.3 7.8 311.6 11.8
2002-05-03 06:58:00 51°14.393 2°55.023 317.3 7.9 312.5 11.7
2002-05-03 06:58:05 51°14.401 2°55.011 318.5 8.2 314 11.6
2002-05-03 06:58:10 51°14.41 2°54.997 319.5 8.5 315.1 11.5
2002-05-03 06:58:15 51°14.419 2°54.983 321 9.2 316.6 11.5
2002-05-03 06:58:20 51°14.429 2°54.968 322.7 9.6 317.8 11.5
2002-05-03 06:58:26 51°14.443 2°54.951 324.3 10.2 320.1 11.4
2002-05-03 06:58:30 51°14.452 2°54.939 324.5 10.5 320.8 11.3
2002-05-03 06:58:35 51°14.464 2°54.924 325.5 10.8 321.7 11.2
2002-05-03 06:58:40 51°14.476 2°54.909 325 11.1 321.9 11.2
2002-05-03 06:58:46 51°14.491 2°54.891 325.2 11.3 322.2 11.2
2002-05-03 06:58:50 51°14.501 2°54.878 325 11.5 322.3 11.2
2002-05-03 06:58:55 51°14.514 2°54.863 325.7 11.6 322.8 11.1
2002-05-03 06:59:00 51°14.528 2°54.848 328.3 11.7 324.1 11.1
2002-05-03 06:59:06 51°14.545 2°54.831 330.5 11.7 326.9 11
2002-05-03 06:59:10 51°14.556 2°54.821 333.2 11.8 329.1 11
2002-05-03 06:59:15 51°14.571 2°54.81 336 11.9 332.6 11
2002-05-03 06:59:20 51°14.586 2°54.8 339.3 11.8 335.2 10.9
2002-05-03 06:59:25 51°14.602 2°54.791 342.8 11.8 338.2 10.9
2002-05-03 06:59:30 51°14.618 2°54.784 345.5 11.8 342.2 10.8
2002-05-03 06:59:35 51°14.633 2°54.776 345.3 11.8 343.2 10.8
2002-05-03 06:59:40 51°14.649 2°54.768 343.8 11.8 342.3 10.9
2002-05-03 06:59:45 51°14.664 2°54.759 341 11.8 339.9 10.9
2002-05-03 06:59:51 51°14.682 2°54.747 340.7 11.7 338.9 10.9
2002-05-03 06:59:55 51°14.695 2°54.74 342.7 11.8 340 10.9
2002-05-03 07:00:00 51°14.711 2°54.733 344.7 11.8 341.5 10.9
2002-05-03 07:00:05 51°14.726 2°54.726 346.8 11.8 344.3 11
2002-05-03 07:00:10 51°14.742 2°54.72 349.3 11.8 345.9 10.9
2002-05-03 07:00:15 51°14.759 2°54.716 352.5 11.9 349.5 10.8
2002-05-03 07:00:20 51°14.776 2°54.713 355 11.9 351.5 10.8
2002-05-03 07:00:26 51°14.795 2°54.71 356.8 12 354.5 10.8
2002-05-03 07:00:30 51°14.808 2°54.708 358.3 12 355.5 10.8
2002-05-03 07:00:35 51°14.825 2°54.708 0.5 12 358.1 10.8
2002-05-03 07:00:40 51°14.842 2°54.707 0.7 12 358.2 10.7
2002-05-03 07:00:45 51°14.858 2°54.707 1.7 12 359.8 10.7
2002-05-03 07:00:50 51°14.875 2°54.707 1.3 12 359.6 10.7
2002-05-03 07:00:56 51°14.895 2°54.709 4.2 12.1 2 10.7
2002-05-03 07:01:00 51°14.909 2°54.71 5.3 12.1 2.8 10.6
2002-05-03 07:01:06 51°14.929 2°54.714 7.8 12.1 5.7 10.5
2002-05-03 07:01:10 51°14.942 2°54.716 8 12.2 6.1 10.4
2002-05-03 07:01:15 51°14.959 2°54.721 10.8 12.2 8.2 10.4
2002-05-03 07:01:20 51°14.976 2°54.725 12.7 12.2 9.7 10.3
2002-05-03 07:01:25 51°14.992 2°54.731 15 12.1 12.1 10.3
2002-05-03 07:01:30 51°15.008 2°54.738 16.5 12.1 13.8 10.1
2002-05-03 07:01:35 51°15.024 2°54.745 17.7 12.1 14.9 9.9
2002-05-03 07:01:40 51°15.041 2°54.753 18.5 12.1 16.3 9.9
2002-05-03 07:01:45 51°15.057 2°54.761 19.2 12.1 16.9 9.7
2002-05-03 07:01:50 51°15.072 2°54.77 21.8 12 18.9 9.8
2002-05-03 07:01:55 51°15.088 2°54.779 23 12.1 20.1 9.7
2002-05-03 07:02:00 51°15.103 2°54.79 24.5 12.1 21.9 9.7
2002-05-03 07:02:06 51°15.122 2°54.801 24.3 12.1 22 9.6
2002-05-03 07:02:10 51°15.135 2°54.811 25.5 12.1 23.2 9.6
2002-05-03 07:02:15 51°15.15 2°54.82 24.3 12.2 22.3 9.6
2002-05-03 07:02:20 51°15.166 2°54.831 25.3 12.2 23.3 9.5
2002-05-03 07:02:26 51°15.185 2°54.843 23.8 12.2 22.2 9.5
2002-05-03 07:02:30 51°15.197 2°54.852 24.7 12.2 23 9.6
2002-05-03 07:02:36 51°15.216 2°54.864 24.2 12.2 22.3 9.6
2002-05-03 07:02:40 51°15.228 2°54.873 26.3 12.1 23.8 9.5
2002-05-03 07:02:45 51°15.243 2°54.884 27.5 12.1 24.6 9.6
2002-05-03 07:02:50 51°15.258 2°54.896 29.5 12.1 26.2 9.6
2002-05-03 07:02:55 51°15.273 2°54.908 29.8 12.1 27 9.7
2002-05-03 07:03:00 51°15.288 2°54.921 31.5 12 28.4 9.7
2002-05-03 07:03:05 51°15.303 2°54.934 31.3 12 28.6 9.7
2002-05-03 07:03:10 51°15.317 2°54.948 32.3 12.1 29.7 9.7
2002-05-03 07:03:16 51°15.334 2°54.963 33 12 30.1 9.7
2002-05-03 07:03:20 51°15.346 2°54.975 34.5 12 31.6 9.8
2002-05-03 07:03:26 51°15.363 2°54.992 35.2 12.1 32.3 9.8
2002-05-03 07:03:30 51°15.374 2°55.005 36.8 12.1 33.5 9.8
2002-05-03 07:03:35 51°15.388 2°55.019 36.7 12.1 33.5 9.9
2002-05-03 07:03:40 51°15.402 2°55.035 37.3 12.2 34.3 9.9
2002-05-03 07:03:45 51°15.416 2°55.049 37 12.2 34.1 9.9
2002-05-03 07:03:51 51°15.432 2°55.068 38.5 12.1 35.5 10
2002-05-03 07:03:55 51°15.443 2°55.081 40 12.1 36.4 10
2002-05-03 07:04:00 51°15.456 2°55.098 42 12.1 38.5 10
2002-05-03 07:04:05 51°15.469 2°55.115 43.3 12.1 40.1 10
2002-05-03 07:04:10 51°15.481 2°55.134 44.8 12.1 41.7 10.1
2002-05-03 07:04:15 51°15.493 2°55.152 46.3 12.1 42.9 10.1
2002-05-03 07:04:20 51°15.505 2°55.17 47.3 12.1 44.1 10
2002-05-03 07:04:26 51°15.52 2°55.193 47.5 12.1 44.6 10.1
2002-05-03 07:04:30 51°15.529 2°55.209 48.5 12.1 45.3 10.1
2002-05-03 07:04:35 51°15.541 2°55.227 47.7 12.1 44.9 10.1
2002-05-03 07:04:40 51°15.553 2°55.246 47.5 12.1 44.9 10.1
2002-05-03 07:04:45 51°15.565 2°55.265 46.7 12.1 44.1 10.1
2002-05-03 07:04:50 51°15.577 2°55.284 47 12.3 44.3 10.1
2002-05-03 07:04:55 51°15.59 2°55.303 45.7 12.5 43.2 10.2
2002-05-03 07:05:01 51°15.606 2°55.326 46 12.7 43.4 10.2
2002-05-03 07:05:06 51°15.619 2°55.345 45.3 12.9 42.6 10.2
2002-05-03 07:05:10 51°15.629 2°55.362 45.5 13 43.3 10.2
2002-05-03 07:05:15 51°15.643 2°55.38 44.8 13.1 42.3 10.3
2002-05-03 07:05:20 51°15.656 2°55.401 45.3 13.2 43.2 10.2
2002-05-03 07:05:26 51°15.673 2°55.424 44.3 13.3 41.7 10.2
2002-05-03 07:05:30 51°15.684 2°55.441 45.3 13.4 42.9 10.2
2002-05-03 07:05:35 51°15.699 2°55.459 43.2 13.4 40.9 10.2
2002-05-03 07:05:40 51°15.711 2°55.481 45.5 13.4 42.8 10.2
2002-05-03 07:05:45 51°15.726 2°55.499 42.7 13.4 41.4 10.1
2002-05-03 07:05:50 51°15.74 2°55.52 45.2 13.5 42.3 10.2
2002-05-03 07:05:55 51°15.755 2°55.538 42.5 13.5 40.3 10.2
2002-05-03 07:06:00 51°15.768 2°55.559 44.8 13.5 41.8 10.2
2002-05-03 07:06:06 51°15.786 2°55.582 43.3 13.5 40.7 10.3
2002-05-03 07:06:10 51°15.796 2°55.599 45.3 13.6 42.1 10.4
2002-05-03 07:06:16 51°15.814 2°55.622 43.5 13.6 41 10.4
2002-05-03 07:06:20 51°15.824 2°55.639 45.5 13.6 42.4 10.4
2002-05-03 07:06:25 51°15.839 2°55.658 44 13.6 41.6 10.3
2002-05-03 07:06:31 51°15.855 2°55.684 45.7 13.6 42.8 10.5
2002-05-03 07:06:35 51°15.867 2°55.699 44.5 13.6 41.7 10.4
2002-05-03 07:06:40 51°15.88 2°55.721 46.5 13.6 43.1 10.4
2002-05-03 07:06:46 51°15.898 2°55.744 44.7 13.6 41.9 10.3
2002-05-03 07:06:50 51°15.908 2°55.762 46.3 13.7 43.5 10.3
2002-05-03 07:06:55 51°15.923 2°55.781 44.5 13.6 41.7 10.6
2002-05-03 07:07:00 51°15.936 2°55.802 46.2 13.6 43.1 10.5
2002-05-03 07:07:05 51°15.95 2°55.822 44.2 13.6 42 10.4
2002-05-03 07:07:10 51°15.964 2°55.843 46.5 13.6 43 10.7
2002-05-03 07:07:15 51°15.977 2°55.864 47.5 13.6 44.2 10.4
2002-05-03 07:07:20 51°15.99 2°55.886 49.8 13.6 45.7 10.5
2002-05-03 07:07:26 51°16.005 2°55.913 50.8 13.6 47.9 10.5
2002-05-03 07:07:30 51°16.014 2°55.931 52.5 13.5 49.1 10.6
2002-05-03 07:07:35 51°16.026 2°55.955 54 13.5 50.9 10.7
2002-05-03 07:07:40 51°16.037 2°55.979 56.8 13.5 52.8 10.7
2002-05-03 07:07:45 51°16.047 2°56.004 58.8 13.5 55.2 10.6
2002-05-03 07:07:50 51°16.057 2°56.029 60.8 13.5 57.8 10.7
2002-05-03 07:07:55 51°16.067 2°56.054 61.5 13.5 58.3 10.6
2002-05-03 07:08:00 51°16.076 2°56.08 63.3 13.4 60 10.7
2002-05-03 07:08:05 51°16.086 2°56.106 62.5 13.5 59.9 10.7
2002-05-03 07:08:10 51°16.094 2°56.132 64.3 13.5 61 10.6
2002-05-03 07:08:15 51°16.104 2°56.158 63.5 13.4 60.3 10.6
2002-05-03 07:08:20 51°16.112 2°56.184 63.7 13.5 61 10.6
2002-05-03 07:08:26 51°16.124 2°56.215 62 13.5 59.5 10.6
2002-05-03 07:08:30 51°16.131 2°56.236 63 13.5 60 10.6
2002-05-03 07:08:35 51°16.141 2°56.261 61.8 13.5 59 10.6
2002-05-03 07:08:40 51°16.15 2°56.287 62.3 13.5 59.4 10.7
2002-05-03 07:08:45 51°16.161 2°56.312 60.7 13.5 58.2 10.7
2002-05-03 07:08:51 51°16.172 2°56.343 61 13.6 58.5 10.6
2002-05-03 07:08:55 51°16.181 2°56.363 59.3 13.6 56.8 10.7
2002-05-03 07:09:00 51°16.191 2°56.388 59.8 13.5 57.2 10.7
2002-05-03 07:09:06 51°16.203 2°56.418 59.3 13.5 56.4 10.6
2002-05-03 07:09:10 51°16.211 2°56.439 60.3 13.5 57.3 10.6
2002-05-03 07:09:15 51°16.222 2°56.463 58.7 13.6 56 10.7
2002-05-03 07:09:20 51°16.232 2°56.489 60.2 13.6 57.2 10.6
2002-05-03 07:09:25 51°16.242 2°56.513 59.2 13.5 56.2 10.6
2002-05-03 07:09:30 51°16.252 2°56.539 60 13.6 57.4 10.6
2002-05-03 07:09:35 51°16.263 2°56.564 58.7 13.6 56.2 10.6
2002-05-03 07:09:40 51°16.272 2°56.59 60.3 13.6 57.7 10.7
2002-05-03 07:09:45 51°16.284 2°56.614 58.8 13.5 56.3 10.6
2002-05-03 07:09:50 51°16.293 2°56.64 60.3 13.5 57.6 10.6
2002-05-03 07:09:55 51°16.304 2°56.664 59 13.6 56 10.6
2002-05-03 07:10:00 51°16.314 2°56.69 60.3 13.5 57.5 10.7
2002-05-03 07:10:06 51°16.326 2°56.719 59.2 13.5 56.4 10.6
2002-05-03 07:10:10 51°16.334 2°56.74 60.2 13.6 57.7 10.7
2002-05-03 07:10:15 51°16.345 2°56.765 59.5 13.5 56.5 10.6
2002-05-03 07:10:20 51°16.354 2°56.791 60.7 13.5 58.1 10.6
2002-05-03 07:10:25 51°16.365 2°56.815 59.7 13.5 56.7 10.6
2002-05-03 07:10:30 51°16.374 2°56.841 61 13.6 58.1 10.7
2002-05-03 07:10:35 51°16.385 2°56.865 59.7 13.5 56.7 10.8
2002-05-03 07:10:40 51°16.395 2°56.891 60.8 13.5 58.1 10.7
2002-05-03 07:10:46 51°16.407 2°56.921 59.3 13.5 56.7 10.7
2002-05-03 07:10:50 51°16.415 2°56.942 60.2 13.5 57.7 10.7
2002-05-03 07:10:55 51°16.426 2°56.966 59.7 13.5 56.7 10.7
2002-05-03 07:11:00 51°16.435 2°56.992 60.8 13.5 57.7 10.7
2002-05-03 07:11:06 51°16.448 2°57.021 58.7 13.5 56.2 10.7
2002-05-03 07:11:10 51°16.456 2°57.041 59.5 13.5 57.1 10.7
2002-05-03 07:11:15 51°16.467 2°57.066 59.8 13.5 56.3 10.7
2002-05-03 07:11:20 51°16.476 2°57.092 60 13.5 57.7 10.7
2002-05-03 07:11:26 51°16.49 2°57.121 58.8 13.5 56 10.7
2002-05-03 07:11:30 51°16.497 2°57.142 60.7 13.5 57.9 10.8
2002-05-03 07:11:35 51°16.508 2°57.166 59 13.5 56.1 10.7
2002-05-03 07:11:40 51°16.517 2°57.192 60.8 13.5 58.1 10.7
2002-05-03 07:11:45 51°16.528 2°57.216 60.5 13.5 57.5 10.9
2002-05-03 07:11:50 51°16.537 2°57.243 62 13.5 59.5 10.8
2002-05-03 07:11:55 51°16.547 2°57.268 61.7 13.5 58.5 10.8
2002-05-03 07:12:00 51°16.556 2°57.294 62.3 13.5 60.3 10.7
2002-05-03 07:12:06 51°16.568 2°57.325 61.5 13.5 58.9 10.7
2002-05-03 07:12:10 51°16.575 2°57.346 63.2 13.5 60.6 10.8
2002-05-03 07:12:15 51°16.585 2°57.371 61.8 13.5 59.1 10.8
2002-05-03 07:12:20 51°16.593 2°57.397 62.8 13.4 60.6 10.7
2002-05-03 07:12:26 51°16.605 2°57.428 62.5 13.4 59.2 10.8
2002-05-03 07:12:30 51°16.613 2°57.449 63 13.5 60 10.7
2002-05-03 07:12:35 51°16.623 2°57.474 62.3 13.5 59.3 10.7
2002-05-03 07:12:40 51°16.632 2°57.5 62.3 13.5 60.2 10.8
2002-05-03 07:12:46 51°16.643 2°57.531 62.2 13.5 59.5 10.7
2002-05-03 07:12:50 51°16.65 2°57.552 62 13.5 60.2 10.7
2002-05-03 07:12:55 51°16.661 2°57.577 62.5 13.5 59.4 10.7
2002-05-03 07:13:00 51°16.67 2°57.603 62.5 13.5 60.2 10.7
2002-05-03 07:13:06 51°16.681 2°57.634 62.5 13.5 59.4 10.6
2002-05-03 07:13:10 51°16.689 2°57.654 62.2 13.5 60.1 10.6
2002-05-03 07:13:15 51°16.698 2°57.68 62 13.5 59.1 10.6
2002-05-03 07:13:20 51°16.708 2°57.705 61.8 13.4 59.4 10.6
2002-05-03 07:13:25 51°16.718 2°57.73 61.3 13.5 58.9 10.7
2002-05-03 07:13:30 51°16.727 2°57.757 62.3 13.5 60.1 10.6
2002-05-03 07:13:35 51°16.737 2°57.782 61.7 13.5 58.9 10.6
2002-05-03 07:13:40 51°16.746 2°57.808 62.3 13.5 59.9 10.7
2002-05-03 07:13:46 51°16.758 2°57.838 61.8 13.5 58.7 10.6
2002-05-03 07:13:50 51°16.765 2°57.859 62.2 13.5 59.8 10.7
2002-05-03 07:13:55 51°16.776 2°57.884 61.3 13.5 58.5 10.7
2002-05-03 07:14:00 51°16.785 2°57.91 62.2 13.5 59.6 10.7
2002-05-03 07:14:06 51°16.797 2°57.94 60.5 13.5 58 10.7
2002-05-03 07:14:10 51°16.804 2°57.961 62 13.5 59.2 10.7
2002-05-03 07:14:16 51°16.816 2°57.991 61.8 13.5 58.7 10.6
2002-05-03 07:14:20 51°16.824 2°58.012 61.8 13.5 59.3 10.7
2002-05-03 07:14:25 51°16.834 2°58.037 62 13.5 58.9 10.7
2002-05-03 07:14:30 51°16.843 2°58.063 61.8 13.6 59.5 10.6
2002-05-03 07:14:36 51°16.855 2°58.094 62.3 13.5 58.9 10.6
2002-05-03 07:14:40 51°16.862 2°58.115 62.3 13.5 59.4 10.6
2002-05-03 07:14:45 51°16.872 2°58.14 62.8 13.5 59.7 10.6
2002-05-03 07:14:50 51°16.882 2°58.166 62.5 13.6 60 10.6
2002-05-03 07:14:55 51°16.891 2°58.192 62.7 13.6 59.7 10.6
2002-05-03 07:15:00 51°16.901 2°58.218 62.3 13.6 59.6 10.6
2002-05-03 07:15:05 51°16.911 2°58.244 62.7 13.6 59.2 10.6
2002-05-03 07:15:10 51°16.92 2°58.27 61.8 13.6 59.5 10.5
2002-05-03 07:15:15 51°16.93 2°58.295 61.8 13.6 59.3 10.6
2002-05-03 07:15:20 51°16.94 2°58.321 61.7 13.6 59.2 10.6
2002-05-03 07:15:25 51°16.949 2°58.347 62.2 13.6 59.2 10.6
2002-05-03 07:15:30 51°16.959 2°58.372 61.2 13.6 58.8 10.6
2002-05-03 07:15:35 51°16.969 2°58.399 62.2 13.7 58.9 10.6
2002-05-03 07:15:40 51°16.98 2°58.424 60.8 13.7 58.3 10.6
2002-05-03 07:15:46 51°16.99 2°58.456 62.2 13.7 59.2 10.6
2002-05-03 07:15:50 51°16.999 2°58.476 61.2 13.7 58.6 10.6
2002-05-03 07:15:55 51°17.008 2°58.503 62.5 13.7 59.9 10.5
2002-05-03 07:16:00 51°17.019 2°58.528 60.7 13.7 58.7 10.5
2002-05-03 07:16:06 51°17.029 2°58.56 62.7 13.7 60.3 10.6
2002-05-03 07:16:10 51°17.038 2°58.58 60.7 13.7 58.8 10.5
2002-05-03 07:16:15 51°17.047 2°58.607 62.7 13.7 59 10.6
2002-05-03 07:16:20 51°17.058 2°58.632 60.7 13.7 58.2 10.6
2002-05-03 07:16:25 51°17.066 2°58.659 63 13.7 60.7 10.5
2002-05-03 07:16:30 51°17.077 2°58.684 60.5 13.7 58.7 10.4
2002-05-03 07:16:35 51°17.086 2°58.712 62.5 13.7 60.2 10.5
2002-05-03 07:16:40 51°17.097 2°58.736 60.5 13.7 58.6 10.5
2002-05-03 07:16:46 51°17.107 2°58.769 62.5 13.7 60.1 10.5
2002-05-03 07:16:50 51°17.116 2°58.788 60.2 13.7 58.1 10.5
2002-05-03 07:16:55 51°17.125 2°58.815 62.3 13.7 59.7 10.5
2002-05-03 07:17:00 51°17.136 2°58.84 60.7 13.7 58.4 10.5
2002-05-03 07:17:05 51°17.144 2°58.867 62.7 13.7 60.1 10.5
2002-05-03 07:17:10 51°17.155 2°58.892 60.7 13.7 58.6 10.5
2002-05-03 07:17:15 51°17.164 2°58.919 62.5 13.7 60.2 10.5
2002-05-03 07:17:21 51°17.177 2°58.949 61.2 13.7 58.8 10.4
2002-05-03 07:17:25 51°17.183 2°58.971 62.8 13.7 60.3 10.4
2002-05-03 07:17:30 51°17.194 2°58.996 61.2 13.7 58.9 10.4
2002-05-03 07:17:35 51°17.202 2°59.023 63.2 13.7 60.6 10.4
2002-05-03 07:17:40 51°17.212 2°59.049 63.2 13.7 60.1 10.4
2002-05-03 07:17:46 51°17.222 2°59.082 64.7 13.7 62.2 10.4
2002-05-03 07:17:51 51°17.232 2°59.108 64.2 13.7 61.2 10.4
2002-05-03 07:17:56 51°17.24 2°59.135 65.8 13.7 63 10.4
2002-05-03 07:18:00 51°17.248 2°59.157 64.5 13.7 61.8 10.4
2002-05-03 07:18:05 51°17.255 2°59.184 65.8 13.7 63.3 10.4
2002-05-03 07:18:10 51°17.265 2°59.211 65.7 13.7 62.6 10.4
2002-05-03 07:18:15 51°17.273 2°59.238 66.2 13.7 63.5 10.4
2002-05-03 07:18:20 51°17.281 2°59.265 65.8 13.7 63.1 10.4
2002-05-03 07:18:26 51°17.292 2°59.297 65.7 13.7 63.2 10.4
2002-05-03 07:18:30 51°17.299 2°59.319 65.8 13.7 63 10.4
2002-05-03 07:18:35 51°17.308 2°59.346 65.3 13.7 62.6 10.4
2002-05-03 07:18:40 51°17.316 2°59.373 65.3 13.7 62.8 10.4
2002-05-03 07:18:45 51°17.325 2°59.4 64.8 13.7 62.2 10.5
2002-05-03 07:18:50 51°17.334 2°59.427 65.5 13.7 62.7 10.4
2002-05-03 07:18:55 51°17.343 2°59.454 65.5 13.8 62.4 10.3
2002-05-03 07:19:00 51°17.351 2°59.482 65.3 13.8 62.9 10.5
2002-05-03 07:19:05 51°17.361 2°59.508 64.8 13.8 62.1 10.5
2002-05-03 07:19:10 51°17.369 2°59.535 64.8 13.8 62.4 10.4
2002-05-03 07:19:16 51°17.38 2°59.567 65 13.7 62 10.4
2002-05-03 07:19:20 51°17.388 2°59.589 65.2 13.7 62.1 10.4
2002-05-03 07:19:25 51°17.397 2°59.616 64.5 13.8 61.7 10.3
2002-05-03 07:19:30 51°17.406 2°59.642 64.3 13.8 61.3 10.4
2002-05-03 07:19:35 51°17.415 2°59.669 63.3 13.7 61.1 10.4
2002-05-03 07:19:40 51°17.425 2°59.694 61.7 13.7 59.2 10.4
2002-05-03 07:19:45 51°17.435 2°59.721 61.3 13.7 59 10.3
2002-05-03 07:19:50 51°17.446 2°59.745 59.7 13.7 58 10.3
2002-05-03 07:19:56 51°17.457 2°59.777 60.2 13.7 57.6 10.3
2002-05-03 07:20:00 51°17.467 2°59.796 58 13.7 55.6 10.3
2002-05-03 07:20:05 51°17.476 2°59.822 59.2 13.7 56.5 10.3
2002-05-03 07:20:10 51°17.488 2°59.846 57.3 13.7 54.6 10.3
2002-05-03 07:20:15 51°17.498 2°59.872 59 13.7 56.1 10.3
2002-05-03 07:20:20 51°17.51 2°59.896 57.7 13.7 54.6 10.2
2002-05-03 07:20:25 51°17.52 2°59.922 59.7 13.7 56.5 10.3
2002-05-03 07:20:30 51°17.531 2°59.946 58.2 13.7 55.8 10.3
2002-05-03 07:20:36 51°17.543 2°59.977 59.3 13.7 56.6 10.3
2002-05-03 07:20:40 51°17.553 2°59.997 58.3 13.8 55.2 10.2
2002-05-03 07:20:45 51°17.562 3°0.023 60.2 13.7 57.1 10.2
2002-05-03 07:20:50 51°17.574 3°0.047 59 13.6 56.1 10.2
2002-05-03 07:20:56 51°17.586 3°0.079 60.3 13.6 57.3 10.2
2002-05-03 07:21:00 51°17.595 3°0.098 59.5 13.7 55.8 10.1
2002-05-03 07:21:05 51°17.604 3°0.125 60.3 13.7 57.7 10.1
2002-05-03 07:21:10 51°17.615 3°0.149 59.3 13.7 56.8 10.1
2002-05-03 07:21:16 51°17.626 3°0.18 61.2 13.6 58.7 10.1
2002-05-03 07:21:20 51°17.635 3°0.2 60.3 13.6 57.3 10.2
2002-05-03 07:21:25 51°17.644 3°0.227 61.2 13.6 58.5 10
2002-05-03 07:21:30 51°17.655 3°0.251 59.5 13.6 57.2 10
2002-05-03 07:21:36 51°17.667 3°0.282 60.3 13.7 58 10.1
2002-05-03 07:21:40 51°17.676 3°0.302 59 13.7 56.1 10
2002-05-03 07:21:45 51°17.685 3°0.328 60.3 13.7 57.9 10
2002-05-03 07:21:50 51°17.697 3°0.353 58.5 13.7 56.3 10
2002-05-03 07:21:56 51°17.709 3°0.384 60.7 13.7 57.8 10
2002-05-03 07:22:00 51°17.718 3°0.403 59.3 13.7 56.2 10
2002-05-03 07:22:05 51°17.727 3°0.43 60.3 13.7 57.5 9.9
2002-05-03 07:22:10 51°17.738 3°0.454 58.8 13.7 56.6 9.9
2002-05-03 07:22:16 51°17.75 3°0.485 59.8 13.7 57 9.9
2002-05-03 07:22:20 51°17.759 3°0.505 59.3 13.7 56 9.9
2002-05-03 07:22:25 51°17.769 3°0.531 60 13.7 57.4 9.8
2002-05-03 07:22:30 51°17.78 3°0.556 59.5 13.8 57 9.9
2002-05-03 07:22:35 51°17.79 3°0.582 60 13.8 57.3 9.9
2002-05-03 07:22:40 51°17.8 3°0.607 60.2 13.7 57.1 9.9
2002-05-03 07:22:45 51°17.81 3°0.633 59.7 13.7 56.9 9.8
2002-05-03 07:22:50 51°17.82 3°0.658 60.3 13.6 56.3 9.9
2002-05-03 07:22:56 51°17.833 3°0.688 59.5 13.6 56.9 9.7
2002-05-03 07:23:00 51°17.841 3°0.709 60.2 13.7 57 9.8
2002-05-03 07:23:05 51°17.851 3°0.735 59.5 13.7 57.2 9.7
2002-05-03 07:23:10 51°17.861 3°0.76 60.3 13.7 57.6 9.7
2002-05-03 07:23:16 51°17.874 3°0.79 60 13.6 57.1 9.7
2002-05-03 07:23:20 51°17.882 3°0.811 60.5 13.6 57.3 9.6
2002-05-03 07:23:25 51°17.892 3°0.836 59.7 13.7 56.9 9.5
2002-05-03 07:23:30 51°17.902 3°0.862 60.5 13.7 57.9 9.6
2002-05-03 07:23:36 51°17.915 3°0.892 59.7 13.7 57.1 9.6
2002-05-03 07:23:40 51°17.922 3°0.913 60.5 13.7 57.2 9.6
2002-05-03 07:23:45 51°17.933 3°0.938 59.5 13.7 56.5 9.6
2002-05-03 07:23:50 51°17.943 3°0.964 60.3 13.7 55.9 9.5
2002-05-03 07:23:56 51°17.956 3°0.993 59 13.7 56.1 9.6
2002-05-03 07:24:00 51°17.964 3°1.015 60.3 13.7 56.9 9.7
2002-05-03 07:24:05 51°17.975 3°1.04 58.8 13.7 56 9.7
2002-05-03 07:24:10 51°17.985 3°1.066 60.2 13.8 57.2 9.8
2002-05-03 07:24:16 51°17.999 3°1.096 58.7 13.8 55.7 9.8
2002-05-03 07:24:20 51°18.006 3°1.117 60 13.8 57.1 9.5
2002-05-03 07:24:25 51°18.017 3°1.141 58.8 13.8 55.8 9.7
2002-05-03 07:24:30 51°18.027 3°1.168 60.3 13.8 56.3 9.9
2002-05-03 07:24:36 51°18.04 3°1.197 58.7 13.8 55.6 9.5
2002-05-03 07:24:40 51°18.048 3°1.219 60.8 13.8 57.7 9.5
2002-05-03 07:24:45 51°18.059 3°1.243 58.5 13.8 55.9 9.8
2002-05-03 07:24:51 51°18.071 3°1.275 60.5 13.8 57.6 9.7
2002-05-03 07:24:55 51°18.08 3°1.294 58.7 13.8 56.1 9.8
2002-05-03 07:25:00 51°18.09 3°1.321 60.2 13.8 57.4 9.7
2002-05-03 07:25:06 51°18.103 3°1.351 59.5 13.8 56.5 9.6
2002-05-03 07:25:10 51°18.111 3°1.372 60.3 13.8 57.7 9.4
2002-05-03 07:25:15 51°18.121 3°1.397 60.2 13.7 57.1 9.5
2002-05-03 07:25:20 51°18.131 3°1.423 60.2 13.7 58.2 9.6
2002-05-03 07:25:26 51°18.144 3°1.454 60.2 13.8 57.3 9.8
2002-05-03 07:25:31 51°18.154 3°1.48 60.8 13.8 58.3 9.4
2002-05-03 07:25:35 51°18.163 3°1.5 60.3 13.8 57.3 9.4
2002-05-03 07:25:40 51°18.172 3°1.526 60.5 13.8 58.1 9.4
2002-05-03 07:25:45 51°18.183 3°1.551 60.2 13.8 57.3 9.5
2002-05-03 07:25:51 51°18.195 3°1.582 60.3 13.7 57.6 9.6
2002-05-03 07:25:55 51°18.203 3°1.603 60.3 13.7 57.6 9.5
2002-05-03 07:26:00 51°18.213 3°1.628 59.5 13.7 57.5 9.3
2002-05-03 07:26:05 51°18.224 3°1.654 60.2 13.7 57.7 9.2
2002-05-03 07:26:10 51°18.234 3°1.679 59.8 13.6 57.3 9.4
2002-05-03 07:26:15 51°18.244 3°1.705 60.8 13.6 58.1 9.3
2002-05-03 07:26:20 51°18.255 3°1.729 59.3 13.7 56.7 9.3
2002-05-03 07:26:26 51°18.266 3°1.761 60.8 13.7 57.8 9.7
2002-05-03 07:26:31 51°18.278 3°1.785 59 13.7 56.5 9.4
2002-05-03 07:26:35 51°18.285 3°1.806 60.5 13.7 57.7 9.3
2002-05-03 07:26:40 51°18.296 3°1.83 59 13.6 56 9.3
2002-05-03 07:26:46 51°18.308 3°1.862 60.2 13.6 57.4 9.6
2002-05-03 07:26:50 51°18.317 3°1.881 58.8 13.6 56.3 9.5
2002-05-03 07:26:56 51°18.328 3°1.912 59.8 13.6 57.3 9.4
2002-05-03 07:27:00 51°18.337 3°1.931 59.5 13.6 56.4 9.7
2002-05-03 07:27:06 51°18.349 3°1.962 59.8 13.6 57.6 9.5
2002-05-03 07:27:10 51°18.357 3°1.982 59.2 13.6 56.6 9.6
2002-05-03 07:27:15 51°18.367 3°2.008 60.8 13.5 58.1 9.5
2002-05-03 07:27:20 51°18.378 3°2.032 59.7 13.5 56.5 9.4
2002-05-03 07:27:25 51°18.387 3°2.058 60.2 13.5 57.5 9.1
2002-05-03 07:27:30 51°18.399 3°2.082 59.3 13.5 56 9.1
2002-05-03 07:27:35 51°18.408 3°2.108 59.7 13.5 57.1 9.2
2002-05-03 07:27:40 51°18.419 3°2.133 59.8 13.5 56.2 9
2002-05-03 07:27:46 51°18.431 3°2.163 60 13.5 57.3 9.3
2002-05-03 07:27:50 51°18.44 3°2.183 59.7 13.5 56.3 9.2
2002-05-03 07:27:55 51°18.449 3°2.208 59.8 13.5 57.2 9.2
2002-05-03 07:28:00 51°18.46 3°2.232 59 13.5 55.9 8.8
2002-05-03 07:28:06 51°18.472 3°2.262 59.7 13.5 57.5 9.2
2002-05-03 07:28:10 51°18.48 3°2.283 59.8 13.4 56.4 8.9
2002-05-03 07:28:15 51°18.49 3°2.308 60 13.4 57.1 8.8
2002-05-03 07:28:20 51°18.501 3°2.333 60.5 13.5 56.6 9.1
2002-05-03 07:28:26 51°18.513 3°2.362 60.2 13.4 57.1 9.1
2002-05-03 07:28:31 51°18.522 3°2.388 60 13.4 56.6 9.2
2002-05-03 07:28:35 51°18.531 3°2.407 59.8 13.4 56.5 8.7
2002-05-03 07:28:40 51°18.541 3°2.432 60.7 13.4 56.8 9.2
2002-05-03 07:28:45 51°18.551 3°2.457 59.5 13.3 56.7 9.2
2002-05-03 07:28:51 51°18.563 3°2.487 59.8 13.4 57 9.1
2002-05-03 07:28:56 51°18.574 3°2.511 59.5 13.4 56.2 8.6
2002-05-03 07:29:00 51°18.581 3°2.531 59.8 13.4 56.8 9.3
2002-05-03 07:29:05 51°18.592 3°2.555 59.2 13.4 56 8.7
2002-05-03 07:29:10 51°18.601 3°2.581 60.7 13.3 57.2 9.3
2002-05-03 07:29:15 51°18.612 3°2.605 59 13.3 56.3 8.8
2002-05-03 07:29:21 51°18.623 3°2.636 61.2 13.4 57.7 8.9
2002-05-03 07:29:26 51°18.634 3°2.659 59.5 13.4 56.5 9
2002-05-03 07:29:30 51°18.641 3°2.68 61 13.4 58.1 8.5
2002-05-03 07:29:35 51°18.652 3°2.704 59.2 13.3 56.5 8.9
2002-05-03 07:29:40 51°18.661 3°2.73 61 13.3 58 8.5
2002-05-03 07:29:46 51°18.674 3°2.758 59 13.3 56.3 8.9
2002-05-03 07:29:50 51°18.681 3°2.779 60.3 13.3 57.9 8.5
2002-05-03 07:29:55 51°18.692 3°2.803 59.8 13.2 56.6 8.9
2002-05-03 07:30:00 51°18.701 3°2.828 60.7 13.3 58.1 8.4
2002-05-03 07:30:06 51°18.714 3°2.857 59.7 13.3 56.6 8.4
2002-05-03 07:30:10 51°18.721 3°2.878 60.7 13.3 57.8 8.3
2002-05-03 07:30:15 51°18.732 3°2.901 59.7 13.3 56.5 8.5
2002-05-03 07:30:20 51°18.742 3°2.927 60.3 13.3 57.7 8.9
2002-05-03 07:30:25 51°18.752 3°2.951 60 13.3 57 8.6
2002-05-03 07:30:31 51°18.764 3°2.981 60 13.3 57.6 8.4
2002-05-03 07:30:35 51°18.772 3°3 60.3 13.3 57 8.8
2002-05-03 07:30:40 51°18.782 3°3.025 60 13.2 57.3 8.4
2002-05-03 07:30:45 51°18.792 3°3.049 60.5 13.3 57.2 8.8
2002-05-03 07:30:50 51°18.802 3°3.074 60.2 13.3 57.4 8.5
2002-05-03 07:30:55 51°18.812 3°3.099 60.7 13.3 57.5 8.4
2002-05-03 07:31:00 51°18.822 3°3.123 60 13.3 57.1 8.5
2002-05-03 07:31:06 51°18.834 3°3.154 60.5 13.3 57.4 8.9
2002-05-03 07:31:11 51°18.845 3°3.177 59.2 13.3 56 8.7
2002-05-03 07:31:15 51°18.852 3°3.198 60.5 13.3 57.6 8.4
2002-05-03 07:31:20 51°18.863 3°3.221 58.7 13.3 56 8.4
2002-05-03 07:31:25 51°18.872 3°3.247 61 13.3 57.9 8.7
2002-05-03 07:31:30 51°18.883 3°3.271 58.8 13.3 56.2 8.6
2002-05-03 07:31:35 51°18.892 3°3.296 60.5 13.3 57.7 8.7
2002-05-03 07:31:40 51°18.904 3°3.32 58.3 13.3 55.7 8.7
2002-05-03 07:31:46 51°18.915 3°3.35 60.7 13.3 56.7 8.8
2002-05-03 07:31:51 51°18.926 3°3.374 58.8 13.3 55.7 8.8
2002-05-03 07:31:55 51°18.933 3°3.394 60.2 13.3 56.9 8.8
2002-05-03 07:32:00 51°18.945 3°3.418 59 13.3 55.4 8.9
2002-05-03 07:32:06 51°18.956 3°3.448 60 13.3 56.8 8.9
2002-05-03 07:32:10 51°18.965 3°3.467 59.2 13.4 55.6 8.7
2002-05-03 07:32:15 51°18.974 3°3.492 59.8 13.4 56.8 9
2002-05-03 07:32:20 51°18.985 3°3.516 60 13.4 55.6 8.8
2002-05-03 07:32:26 51°18.997 3°3.546 59.7 13.4 56.7 9
2002-05-03 07:32:30 51°19.006 3°3.566 59.8 13.4 55.8 8.9
2002-05-03 07:32:35 51°19.016 3°3.591 59.7 13.4 56.4 8.7
2002-05-03 07:32:40 51°19.026 3°3.616 59.7 13.4 55.9 8.7
2002-05-03 07:32:46 51°19.039 3°3.645 59.3 13.4 56 8.7
2002-05-03 07:32:51 51°19.048 3°3.671 60.2 13.4 56.4 8.9
2002-05-03 07:32:55 51°19.057 3°3.69 59.7 13.4 56.1 8.8
2002-05-03 07:33:00 51°19.066 3°3.715 60.8 13.4 56.9 8.8
2002-05-03 07:33:06 51°19.079 3°3.744 59.5 13.4 56.1 8.8
2002-05-03 07:33:10 51°19.086 3°3.764 61.2 13.3 58 9.1
2002-05-03 07:33:15 51°19.097 3°3.788 59.7 13.3 56.4 8.9
2002-05-03 07:33:20 51°19.106 3°3.814 61.7 13.3 57.6 8.8
2002-05-03 07:33:25 51°19.117 3°3.838 59.3 13.3 56.3 9.1
2002-05-03 07:33:30 51°19.126 3°3.863 61.2 13.3 57.5 9.1
2002-05-03 07:33:35 51°19.137 3°3.887 59.2 13.3 56.3 9.1
2002-05-03 07:33:40 51°19.147 3°3.912 60.7 13.3 57.1 9.2
2002-05-03 07:33:46 51°19.16 3°3.941 59 13.3 55.7 9
2002-05-03 07:33:50 51°19.167 3°3.962 60.3 13.3 57.3 9.1
2002-05-03 07:33:55 51°19.178 3°3.985 58.7 13.3 55.8 9.1
2002-05-03 07:34:00 51°19.187 3°4.011 60.2 13.3 56.7 9.1
2002-05-03 07:34:05 51°19.199 3°4.034 58.2 13.3 55 9.1
2002-05-03 07:34:10 51°19.208 3°4.059 60 13.3 56.6 9.1
2002-05-03 07:34:15 51°19.219 3°4.082 58.2 13.2 55.1 9.2
2002-05-03 07:34:20 51°19.228 3°4.108 60.3 13.2 56.8 8.8
2002-05-03 07:34:25 51°19.24 3°4.131 58 13.2 54.8 9
2002-05-03 07:34:31 51°19.251 3°4.161 59.8 13.2 56.5 9
2002-05-03 07:34:35 51°19.26 3°4.179 58.8 13.2 55.3 8.9
2002-05-03 07:34:40 51°19.269 3°4.204 60.8 13.2 57 9
2002-05-03 07:34:45 51°19.281 3°4.227 58.2 13.2 55.2 9
2002-05-03 07:34:50 51°19.29 3°4.253 59.8 13.2 56.5 8.9
2002-05-03 07:34:55 51°19.301 3°4.276 59 13.2 55.4 9.1
2002-05-03 07:35:00 51°19.31 3°4.301 60.5 13.2 56.9 9
2002-05-03 07:35:06 51°19.323 3°4.33 59.8 13.2 56 8.9
2002-05-03 07:35:10 51°19.331 3°4.35 60.7 13.2 57.7 8.8
2002-05-03 07:35:16 51°19.343 3°4.379 59.8 13.1 56.5 8.8
2002-05-03 07:35:20 51°19.351 3°4.398 60.5 13.2 57.4 8.8
2002-05-03 07:35:26 51°19.363 3°4.428 60.3 13.2 56.4 8.8
2002-05-03 07:35:30 51°19.371 3°4.447 59.2 13.2 56.3 8.8
2002-05-03 07:35:35 51°19.383 3°4.469 56.2 13.2 53.3 8.9
2002-05-03 07:35:40 51°19.394 3°4.492 53.7 13.1 51.5 8.8
2002-05-03 07:35:46 51°19.409 3°4.518 51.5 13.1 48.4 8.8
2002-05-03 07:35:50 51°19.42 3°4.534 49.2 13.2 46.3 8.8
2002-05-03 07:35:55 51°19.433 3°4.554 48.2 13.2 44.8 8.9
2002-05-03 07:36:00 51°19.446 3°4.575 46.2 13.2 44.1 8.8
2002-05-03 07:36:05 51°19.459 3°4.594 46.5 13.2 42.9 8.9
2002-05-03 07:36:10 51°19.473 3°4.614 45.5 13.1 42.6 8.8
2002-05-03 07:36:15 51°19.486 3°4.634 46.7 13.2 43.1 8.9
2002-05-03 07:36:20 51°19.5 3°4.653 45.8 13.1 42.9 8.8
2002-05-03 07:36:26 51°19.515 3°4.678 47.8 13.1 44.3 8.8
2002-05-03 07:36:31 51°19.528 3°4.697 46.7 13.1 43.7 8.8
2002-05-03 07:36:35 51°19.538 3°4.714 48.7 13 45.1 8.8
2002-05-03 07:36:40 51°19.551 3°4.734 47.8 13 44.6 8.8
2002-05-03 07:36:45 51°19.563 3°4.755 49.3 13 46.1 8.9
2002-05-03 07:36:51 51°19.58 3°4.779 48.2 13 44.7 8.8
2002-05-03 07:36:56 51°19.591 3°4.801 49.7 13 46.4 8.9
2002-05-03 07:37:00 51°19.602 3°4.816 48.2 13 45.2 8.9
2002-05-03 07:37:06 51°19.616 3°4.842 49.8 13 46.6 8.9
2002-05-03 07:37:10 51°19.627 3°4.858 49.2 13 45.7 8.9
2002-05-03 07:37:15 51°19.638 3°4.88 51 13 47.7 8.9
2002-05-03 07:37:20 51°19.652 3°4.9 49.8 13 46.3 8.8
2002-05-03 07:37:26 51°19.665 3°4.926 51.7 12.9 48.4 8.8
2002-05-03 07:37:30 51°19.676 3°4.942 49.8 13 46.6 8.8
2002-05-03 07:37:36 51°19.69 3°4.969 52 12.9 48.2 8.8
2002-05-03 07:37:40 51°19.7 3°4.984 49.3 12.9 46.1 8.8
2002-05-03 07:37:45 51°19.712 3°5.007 51.3 12.9 47.5 8.8
2002-05-03 07:37:51 51°19.727 3°5.03 48.8 12.9 45.9 8.8
2002-05-03 07:37:55 51°19.736 3°5.048 51.7 12.9 47.8 8.8
2002-05-03 07:38:00 51°19.75 3°5.067 48.5 12.9 45.8 8.8
2002-05-03 07:38:06 51°19.763 3°5.093 50.5 12.9 47.2 8.8
2002-05-03 07:38:11 51°19.776 3°5.112 48.5 12.8 45.4 8.8
2002-05-03 07:38:16 51°19.788 3°5.135 51.3 12.8 47.7 8.8
2002-05-03 07:38:20 51°19.798 3°5.15 49.3 12.9 46.4 8.8
2002-05-03 07:38:25 51°19.81 3°5.172 51 12.9 47.3 8.8
2002-05-03 07:38:30 51°19.823 3°5.192 49.5 12.9 46.2 8.7
2002-05-03 07:38:35 51°19.835 3°5.213 50.5 12.8 46.9 8.8
2002-05-03 07:38:40 51°19.847 3°5.233 49.5 12.8 46.1 8.8
2002-05-03 07:38:46 51°19.861 3°5.258 50 12.8 46.9 8.8
2002-05-03 07:38:50 51°19.872 3°5.274 49.3 12.8 45.8 8.8
2002-05-03 07:38:55 51°19.884 3°5.296 50.2 12.8 47 8.8
2002-05-03 07:39:00 51°19.897 3°5.315 48.8 12.9 45.5 8.8
2002-05-03 07:39:05 51°19.908 3°5.337 50 12.9 46.8 8.8
2002-05-03 07:39:10 51°19.922 3°5.356 49 12.9 45.2 8.7
2002-05-03 07:39:15 51°19.933 3°5.378 50 12.8 46.7 8.8
2002-05-03 07:39:20 51°19.946 3°5.397 49.5 12.8 45.3 8.7
2002-05-03 07:39:26 51°19.961 3°5.422 50.3 12.8 46.8 8.8
2002-05-03 07:39:30 51°19.971 3°5.439 49.3 12.8 45.6 8.8
2002-05-03 07:39:35 51°19.982 3°5.46 50.3 12.9 46.9 8.8
2002-05-03 07:39:40 51°19.995 3°5.48 49.7 12.9 45.8 8.8
2002-05-03 07:39:46 51°20.01 3°5.505 50.8 12.8 47.1 8.8
2002-05-03 07:39:50 51°20.019 3°5.521 50.5 12.8 46.2 8.7
2002-05-03 07:39:55 51°20.031 3°5.542 50 12.8 46.5 8.7
2002-05-03 07:40:00 51°20.044 3°5.563 50.2 12.8 45.9 8.7
2002-05-03 07:40:05 51°20.056 3°5.583 49.8 12.8 45.9 8.7
2002-05-03 07:40:10 51°20.068 3°5.604 50.2 12.8 45.9 8.7
2002-05-03 07:40:15 51°20.081 3°5.623 47.8 12.8 44.7 8.7
2002-05-03 07:40:21 51°20.095 3°5.648 49.5 12.7 45.6 8.7
2002-05-03 07:40:26 51°20.109 3°5.667 47.7 12.7 44.1 8.7
2002-05-03 07:40:30 51°20.118 3°5.684 49.8 12.8 46.1 8.7
2002-05-03 07:40:35 51°20.131 3°5.703 48.2 12.8 44.7 8.7
2002-05-03 07:40:40 51°20.143 3°5.725 50 12.8 46.2 8.6
2002-05-03 07:40:46 51°20.158 3°5.748 48.8 12.8 45 8.6
2002-05-03 07:40:50 51°20.167 3°5.765 50 12.8 46.4 8.6
2002-05-03 07:40:55 51°20.18 3°5.785 49.7 12.8 45.7 8.5
2002-05-03 07:41:00 51°20.192 3°5.806 50.5 12.8 47 8.6
2002-05-03 07:41:06 51°20.207 3°5.831 50.3 12.8 46.2 8.6
2002-05-03 07:41:10 51°20.216 3°5.847 51.2 12.8 47.3 8.5
2002-05-03 07:41:15 51°20.229 3°5.867 49.8 12.8 46.1 8.5
2002-05-03 07:41:20 51°20.241 3°5.888 50.7 12.8 47.1 8.5
2002-05-03 07:41:25 51°20.254 3°5.908 50.2 12.8 46 8.5
2002-05-03 07:41:31 51°20.268 3°5.933 50.2 12.8 47 8.5
2002-05-03 07:41:36 51°20.28 3°5.953 50 12.7 46.2 8.5
2002-05-03 07:41:40 51°20.29 3°5.97 50 12.7 47.3 8.5
2002-05-03 07:41:45 51°20.303 3°5.99 49.8 12.8 46 8.5
2002-05-03 07:41:50 51°20.315 3°6.011 50 12.8 47 8.5
2002-05-03 07:41:56 51°20.33 3°6.035 49.5 12.8 46 8.5
2002-05-03 07:42:00 51°20.339 3°6.051 49.8 12.8 45.9 8.3
2002-05-03 07:42:06 51°20.354 3°6.076 50 12.8 46.1 8.5
2002-05-03 07:42:11 51°20.366 3°6.096 50.3 12.7 47.1 8.5
2002-05-03 07:42:15 51°20.376 3°6.112 50.3 12.7 46.5 8.4
2002-05-03 07:42:20 51°20.388 3°6.133 50 12.8 46.8 8.4
2002-05-03 07:42:25 51°20.4 3°6.153 50.5 12.8 46.6 8.5
2002-05-03 07:42:31 51°20.415 3°6.177 49.8 12.7 46.5 8.4
2002-05-03 07:42:36 51°20.427 3°6.199 50.5 12.8 46.7 8.3
2002-05-03 07:42:40 51°20.438 3°6.214 49 12.8 45.9 8.4
2002-05-03 07:42:45 51°20.449 3°6.235 50.7 12.7 46.6 8.4
2002-05-03 07:42:50 51°20.462 3°6.255 49 12.7 46 8.4
2002-05-03 07:42:55 51°20.474 3°6.276 51.2 12.7 47.2 8.4
2002-05-03 07:43:00 51°20.486 3°6.295 49.2 12.7 46.2 8.4
2002-05-03 07:43:06 51°20.5 3°6.321 51.5 12.7 47.3 8.4
2002-05-03 07:43:10 51°20.511 3°6.336 49.7 12.7 47.6 8.3
2002-05-03 07:43:16 51°20.525 3°6.362 51.3 12.8 47.3 8.4
2002-05-03 07:43:20 51°20.535 3°6.377 48.8 12.8 46.2 8.3
2002-05-03 07:43:26 51°20.549 3°6.403 50.5 12.8 46.5 8.3
2002-05-03 07:43:30 51°20.56 3°6.418 48.8 12.7 45.5 8.3
2002-05-03 07:43:35 51°20.571 3°6.439 51 12.7 47 8.3
2002-05-03 07:43:40 51°20.584 3°6.458 48.7 12.7 45.6 8.3
2002-05-03 07:43:46 51°20.598 3°6.484 50.8 12.7 47 8.3
2002-05-03 07:43:50 51°20.609 3°6.499 48.5 12.7 45.3 8.3
2002-05-03 07:43:55 51°20.62 3°6.52 51 12.7 46.9 8.3
2002-05-03 07:44:00 51°20.634 3°6.539 49 12.7 45.5 8.3
2002-05-03 07:44:06 51°20.647 3°6.565 50.2 12.7 46.8 8.3
2002-05-03 07:44:10 51°20.658 3°6.58 48.8 12.7 45.3 8.3
2002-05-03 07:44:16 51°20.672 3°6.605 50.3 12.7 46.6 8.3
2002-05-03 07:44:20 51°20.682 3°6.621 49 12.8 45.2 8.3
2002-05-03 07:44:26 51°20.697 3°6.646 50.5 12.8 46.5 8.3
2002-05-03 07:44:31 51°20.709 3°6.666 49.2 12.8 45.5 8.3
2002-05-03 07:44:36 51°20.721 3°6.686 50.5 12.8 46.8 8.3
2002-05-03 07:44:40 51°20.732 3°6.702 49.3 12.8 45.8 8.3
2002-05-03 07:44:46 51°20.746 3°6.727 50.8 12.8 47 8.3
2002-05-03 07:44:50 51°20.756 3°6.743 50.2 12.8 45.9 8.3
2002-05-03 07:44:55 51°20.767 3°6.764 50.3 12.7 46.8 8.3
2002-05-03 07:45:00 51°20.78 3°6.784 50.5 12.7 46.1 8.4
2002-05-03 07:45:06 51°20.795 3°6.809 50 12.8 46.2 8.4
2002-05-03 07:45:10 51°20.805 3°6.825 49.8 12.8 45.7 8.4
2002-05-03 07:45:16 51°20.82 3°6.849 49.2 12.8 45.6 8.4
2002-05-03 07:45:20 51°20.829 3°6.866 49.5 12.8 45.2 8.4
2002-05-03 07:45:25 51°20.842 3°6.886 49.3 12.8 45.4 8.3
2002-05-03 07:45:30 51°20.854 3°6.907 49.8 12.8 45.6 8.4
2002-05-03 07:45:35 51°20.867 3°6.927 49.2 12.8 45.3 8.2
2002-05-03 07:45:40 51°20.879 3°6.948 50.3 12.8 46.2 8.4
2002-05-03 07:45:45 51°20.892 3°6.967 49.2 12.8 45.3 8.3
2002-05-03 07:45:50 51°20.903 3°6.989 50.7 12.8 46.5 8.4
2002-05-03 07:45:55 51°20.916 3°7.008 49.2 12.9 45.7 8.4
2002-05-03 07:46:00 51°20.928 3°7.03 50.8 12.9 47.1 8.3
2002-05-03 07:46:06 51°20.943 3°7.054 49.3 12.9 45.6 8.4
2002-05-03 07:46:10 51°20.953 3°7.071 50.7 12.9 46.9 8.3
2002-05-03 07:46:16 51°20.968 3°7.095 49.3 12.8 45.7 8.3
2002-05-03 07:46:20 51°20.977 3°7.112 50 12.8 46.3 8.5
2002-05-03 07:46:25 51°20.991 3°7.131 49.5 12.8 45.5 8.5
2002-05-03 07:46:30 51°21.002 3°7.153 50 12.8 46.5 8.7
2002-05-03 07:46:35 51°21.015 3°7.173 49.8 12.9 45.9 8.7
2002-05-03 07:46:40 51°21.027 3°7.193 49.8 12.9 46.4 8.6
2002-05-03 07:46:46 51°21.042 3°7.219 50.5 12.9 46.3 8.7
2002-05-03 07:46:51 51°21.055 3°7.238 49.5 12.9 45.7 8.6
2002-05-03 07:46:56 51°21.067 3°7.26 49.8 12.9 46 8.7
2002-05-03 07:47:00 51°21.077 3°7.275 48.8 12.9 45.7 8.7
2002-05-03 07:47:06 51°21.092 3°7.3 48.8 12.8 45.2 8.8
2002-05-03 07:47:10 51°21.103 3°7.314 46.8 12.9 43.1 8.8
2002-05-03 07:47:15 51°21.116 3°7.335 47.7 12.9 43.4 8.9
2002-05-03 07:47:20 51°21.13 3°7.353 45.2 12.9 42.2 8.9
2002-05-03 07:47:26 51°21.145 3°7.377 46 13 42.1 9
2002-05-03 07:47:30 51°21.157 3°7.391 44 12.9 40.4 9
2002-05-03 07:47:35 51°21.17 3°7.41 44.7 13 40.6 9.1
2002-05-03 07:47:40 51°21.184 3°7.428 43.3 13 40.2 9.2
2002-05-03 07:47:46 51°21.2 3°7.451 44.5 13 40.3 9.1
2002-05-03 07:47:50 51°21.212 3°7.464 43.2 13 39.8 9.3
2002-05-03 07:47:55 51°21.225 3°7.483 44.8 13 40.5 9.3
2002-05-03 07:48:01 51°21.242 3°7.505 43.3 13 40 9.3
2002-05-03 07:48:06 51°21.256 3°7.524 44.8 13 39.3 9.4
2002-05-03 07:48:10 51°21.267 3°7.538 43.5 13 39.4 9.4
2002-05-03 07:48:15 51°21.281 3°7.557 45 13 40.7 9.7
2002-05-03 07:48:20 51°21.295 3°7.575 43.2 13 39.9 9.5
2002-05-03 07:48:25 51°21.308 3°7.594 44.7 13 40.5 9.7
2002-05-03 07:48:30 51°21.323 3°7.612 42.7 13 39.6 9.6
2002-05-03 07:48:35 51°21.336 3°7.632 45.3 13 41 9.6
2002-05-03 07:48:40 51°21.35 3°7.649 43 13 40.1 9.7
2002-05-03 07:48:45 51°21.364 3°7.669 45.2 13.1 41 9.8
2002-05-03 07:48:50 51°21.378 3°7.687 44.3 13.1 40.8 9.6
2002-05-03 07:48:55 51°21.391 3°7.707 45.7 13 41.7 10
2002-05-03 07:49:00 51°21.405 3°7.725 44.3 13 41.2 10
2002-05-03 07:49:06 51°21.42 3°7.749 46 13 41.8 10.1
2002-05-03 07:49:10 51°21.432 3°7.764 44.8 13 41.6 10.1
2002-05-03 07:49:16 51°21.448 3°7.788 46 13.1 41.8 10.2
2002-05-03 07:49:20 51°21.459 3°7.802 45 13.1 41.9 10.3
2002-05-03 07:49:26 51°21.475 3°7.826 45.7 13.1 41.9 10.3
2002-05-03 07:49:30 51°21.486 3°7.841 44.2 13.1 41.9 10.4
2002-05-03 07:49:35 51°21.5 3°7.86 45 13 41.4 10.4
2002-05-03 07:49:40 51°21.513 3°7.878 44.2 13 41.6 10.5
2002-05-03 07:49:45 51°21.527 3°7.897 44.3 13 40.6 10.5
2002-05-03 07:49:51 51°21.543 3°7.919 44.2 13 41.1 10.6
2002-05-03 07:49:55 51°21.554 3°7.934 44.5 13 40.6 10.8
2002-05-03 07:50:00 51°21.567 3°7.954 44.5 13 41.6 10.9
2002-05-03 07:50:06 51°21.584 3°7.977 44.3 13 40.8 11
2002-05-03 07:50:10 51°21.595 3°7.992 44.7 13 41.9 11
2002-05-03 07:50:16 51°21.612 3°8.015 44.7 13.1 41.2 11
2002-05-03 07:50:20 51°21.622 3°8.03 44.8 13 41.9 11
2002-05-03 07:50:26 51°21.638 3°8.053 45.5 13 41.6 11
2002-05-03 07:50:31 51°21.652 3°8.072 45.2 13 42.4 11.1
2002-05-03 07:50:35 51°21.663 3°8.087 45 13 41.5 11.2
2002-05-03 07:50:40 51°21.676 3°8.107 45.3 13 42.5 11.3
2002-05-03 07:50:45 51°21.69 3°8.125 45 13 41.3 11.2
2002-05-03 07:50:50 51°21.703 3°8.145 45 13 42.6 11.3
2002-05-03 07:50:55 51°21.717 3°8.163 44.5 13 40.6 11.3
2002-05-03 07:51:00 51°21.73 3°8.184 45 13 42 11.4
2002-05-03 07:51:05 51°21.745 3°8.202 44 13.1 40.6 11.5
2002-05-03 07:51:10 51°21.758 3°8.222 44.5 13 42 11.5
2002-05-03 07:51:16 51°21.774 3°8.244 43.8 13 40.5 11.6
2002-05-03 07:51:20 51°21.785 3°8.26 45 13 42.3 11.6
2002-05-03 07:51:26 51°21.802 3°8.281 43.7 13 40.5 11.7
2002-05-03 07:51:30 51°21.812 3°8.298 45.7 13 42.4 11.7
2002-05-03 07:51:36 51°21.829 3°8.319 43.2 13 39.9 11.8
2002-05-03 07:51:40 51°21.84 3°8.335 45.8 13 41.8 11.9
2002-05-03 07:51:46 51°21.857 3°8.356 43.3 13 39.8 11.9
2002-05-03 07:51:50 51°21.867 3°8.373 45.7 13 41.7 12
2002-05-03 07:51:56 51°21.884 3°8.394 43.2 13.1 39.7 12
2002-05-03 07:52:00 51°21.894 3°8.411 45.8 13.1 41.4 12.1
2002-05-03 07:52:05 51°21.909 3°8.428 43.5 13.1 40 12.1
2002-05-03 07:52:10 51°21.922 3°8.449 46.5 13.1 41.8 12.1
2002-05-03 07:52:15 51°21.936 3°8.467 43.7 13.1 40.6 12.2
2002-05-03 07:52:20 51°21.949 3°8.487 46.5 13.1 41.9 12.2
2002-05-03 07:52:25 51°21.963 3°8.505 44.3 13.1 40.9 12.3
2002-05-03 07:52:31 51°21.979 3°8.53 46.3 13.1 42 12.3
2002-05-03 07:52:35 51°21.99 3°8.544 44.2 13.1 41.1 12.4
2002-05-03 07:52:40 51°22.003 3°8.564 46.3 13.1 42.2 12.5
2002-05-03 07:52:45 51°22.017 3°8.583 44.2 13 42.4 12.4
2002-05-03 07:52:51 51°22.033 3°8.607 45.8 13.1 41.3 12.5
2002-05-03 07:52:55 51°22.044 3°8.621 44.3 13.1 41 12.5
2002-05-03 07:53:00 51°22.058 3°8.641 45.3 13.1 40.8 12.6
2002-05-03 07:53:05 51°22.072 3°8.659 43.5 13 40.7 12.6
2002-05-03 07:53:11 51°22.089 3°8.682 44.2 13.1 40 12.7
2002-05-03 07:53:16 51°22.103 3°8.699 43 13.1 39.3 12.8
2002-05-03 07:53:20 51°22.114 3°8.714 43.7 13.1 38.8 12.8
2002-05-03 07:53:25 51°22.128 3°8.732 42.5 13.1 39.8 12.9
2002-05-03 07:53:30 51°22.142 3°8.751 43.8 13.1 38.5 12.9
2002-05-03 07:53:36 51°22.159 3°8.772 42.3 13 38.9 12.9
2002-05-03 07:53:40 51°22.171 3°8.786 42.5 13 38.2 13
2002-05-03 07:53:46 51°22.188 3°8.808 42.5 13 38.8 13
2002-05-03 07:53:50 51°22.199 3°8.822 42.3 13.1 37.5 13
2002-05-03 07:53:56 51°22.215 3°8.844 43.3 13 39.3 13.1
2002-05-03 07:54:00 51°22.227 3°8.858 40.8 13.1 37.5 13.1
2002-05-03 07:54:06 51°22.244 3°8.88 43.3 13.1 39.3 13.2
2002-05-03 07:54:10 51°22.256 3°8.893 40.3 13.1 38.1 13.2
2002-05-03 07:54:16 51°22.272 3°8.916 43.5 13.1 39.2 13.3
2002-05-03 07:54:20 51°22.285 3°8.928 40 13.1 36.9 13.3
2002-05-03 07:54:26 51°22.301 3°8.952 43.2 13.1 38.8 13.4
2002-05-03 07:54:30 51°22.313 3°8.964 40.7 13.1 37.2 13.4
2002-05-03 07:54:35 51°22.327 3°8.984 43.3 13 39.2 13.5
2002-05-03 07:54:40 51°22.342 3°9 41.3 13 37.6 13.4
2002-05-03 07:54:46 51°22.358 3°9.023 43.8 13 39.2 13.5
2002-05-03 07:54:50 51°22.37 3°9.036 41.7 13 38.1 13.5
2002-05-03 07:54:55 51°22.384 3°9.055 44.2 13 39.4 13.5
2002-05-03 07:55:00 51°22.398 3°9.072 42.2 13 38.5 13.5
2002-05-03 07:55:06 51°22.414 3°9.095 44.5 13 39.7 13.5
2002-05-03 07:55:10 51°22.426 3°9.108 42.2 13 38.8 13.6
2002-05-03 07:55:15 51°22.44 3°9.127 44.2 13.1 39.3 13.7
2002-05-03 07:55:20 51°22.455 3°9.145 42 13.1 38.8 13.7
2002-05-03 07:55:25 51°22.469 3°9.163 43.7 13.1 38.8 13.7
2002-05-03 07:55:30 51°22.483 3°9.181 42.2 13.1 38.8 13.8
2002-05-03 07:55:36 51°22.5 3°9.203 44 13.1 38.5 13.8
2002-05-03 07:55:40 51°22.51 3°9.217 43.7 12.8 38.9 13.8
2002-05-03 07:55:46 51°22.526 3°9.234 40.5 11.9 36.7 13.8
2002-05-03 07:55:51 51°22.538 3°9.246 39 11.1 35.1 13.8
2002-05-03 07:55:55 51°22.547 3°9.255 36.5 10 32.1 13.8
2002-05-03 07:56:00 51°22.558 3°9.264 33.3 9.4 29.5 13.9
2002-05-03 07:56:06 51°22.57 3°9.274 30.2 8.4 26.2 13.9
2002-05-03 07:56:11 51°22.58 3°9.279 26.3 7.8 22.4 14
2002-05-03 07:56:16 51°22.589 3°9.284 23.3 7.3 19.1 14
2002-05-03 07:56:20 51°22.596 3°9.286 19.8 6.9 15.9 13.9
2002-05-03 07:56:26 51°22.607 3°9.289 17 6.4 12.2 13.9
2002-05-03 07:56:30 51°22.613 3°9.291 14 6.1 9.7 13.8
2002-05-03 07:56:35 51°22.621 3°9.292 11.2 5.7 6 13.8
2002-05-03 07:56:40 51°22.628 3°9.292 8.7 5.4 3.7 13.8
2002-05-03 07:56:46 51°22.636 3°9.292 6.5 5.1 0.9 13.2
2002-05-03 07:56:50 51°22.642 3°9.292 4.2 4.9 358.7 13.8
2002-05-03 07:56:55 51°22.648 3°9.29 2 4.7 355.5 13.9
2002-05-03 07:57:00 51°22.654 3°9.289 359.8 4.6 353.6 13.9
2002-05-03 07:57:06 51°22.661 3°9.287 358 4.3 351 14
2002-05-03 07:57:10 51°22.665 3°9.285 356.2 4.2 349.3 14
2002-05-03 07:57:15 51°22.671 3°9.283 354.3 4 347 14
2002-05-03 07:57:21 51°22.677 3°9.28 352.8 3.9 345.4 14
2002-05-03 07:57:26 51°22.682 3°9.278 352.3 3.8 344.4 14
2002-05-03 07:57:31 51°22.687 3°9.276 353 3.8 344.7 13.9
2002-05-03 07:57:35 51°22.692 3°9.274 356.7 4.1 347.5 13.9
2002-05-03 07:57:40 51°22.698 3°9.273 1.7 4.3 351.4 13.9
2002-05-03 07:57:46 51°22.705 3°9.273 8.3 4.3 356.8 13.9
2002-05-03 07:57:50 51°22.71 3°9.274 13.3 4.2 0.9 13.9
2002-05-03 07:57:56 51°22.717 3°9.276 19 4.2 7.6 13.9
2002-05-03 07:58:00 51°22.721 3°9.278 24.7 4.2 11.9 13.9
2002-05-03 07:58:06 51°22.728 3°9.283 31 4.3 20.3 14
2002-05-03 07:58:10 51°22.732 3°9.287 38.3 4.5 25.9 14
2002-05-03 07:58:15 51°22.737 3°9.293 46.2 4.5 34.5 14
2002-05-03 07:58:20 51°22.741 3°9.299 51.3 4.2 39.5 14
2002-05-03 07:58:26 51°22.746 3°9.306 54 3.8 43.8 13.6
2002-05-03 07:58:30 51°22.748 3°9.31 55.5 3.4 45.2 14
2002-05-03 07:58:35 51°22.751 3°9.315 58.5 2.9 47 14
2002-05-03 07:58:40 51°22.752 3°9.318 63.2 2.2 48.9 14
2002-05-03 07:58:46 51°22.754 3°9.32 68.5 1.5 49.7 13.9
2002-05-03 07:58:50 51°22.754 3°9.321 74 1 45.4 14
2002-05-03 07:58:55 51°22.755 3°9.321 79.2 0.4 10.8 14
2002-05-03 07:59:00 51°22.755 3°9.32 83.8 0.3 338.4 14
2002-05-03 07:59:06 51°22.755 3°9.32 87 0.2 327.9 14.1
2002-05-03 07:59:10 51°22.756 3°9.32 90.2 0.1 356.9 14
2002-05-03 07:59:15 51°22.755 3°9.321 94.2 0.3 83.1 14
2002-05-03 07:59:20 51°22.755 3°9.323 99.5 0.6 97.8 14
2002-05-03 07:59:25 51°22.755 3°9.326 107.5 1.4 106.7 13.9
2002-05-03 07:59:30 51°22.753 3°9.33 115.7 1.9 113 13.9
2002-05-03 07:59:36 51°22.75 3°9.336 125.3 2.6 125.2 14
2002-05-03 07:59:40 51°22.748 3°9.34 133.8 3 132.5 14.1
2002-05-03 07:59:46 51°22.742 3°9.346 141.3 3.6 142.4 14.1
2002-05-03 07:59:51 51°22.737 3°9.351 146.7 4.1 146.4 14.1
2002-05-03 07:59:55 51°22.732 3°9.355 149.2 4.6 150.4 14.1
2002-05-03 08:00:00 51°22.727 3°9.36 148.7 4.6 149.8 14
2002-05-03 08:00:06 51°22.721 3°9.365 146.3 4.3 150.3 13.9
2002-05-03 08:00:11 51°22.716 3°9.369 145.7 3.9 150.3 13.8
2002-05-03 08:00:16 51°22.713 3°9.372 146.5 3.4 151.1 13.9
2002-05-03 08:00:20 51°22.71 3°9.374 150.2 3 153.2 14
2002-05-03 08:00:26 51°22.707 3°9.375 155.3 2.3 160.5 14
2002-05-03 08:00:30 51°22.705 3°9.376 161.2 1.8 167.1 14
2002-05-03 08:00:36 51°22.703 3°9.375 166.2 1.2 179.2 13.9
2002-05-03 08:00:40 51°22.703 3°9.375 170.8 0.8 190.3 13.6
2002-05-03 08:00:46 51°22.702 3°9.374 174.5 0.5 210 14
2002-05-03 08:00:50 51°22.702 3°9.374 177.3 0.5 222.8 13.9
2002-05-03 08:00:55 51°22.701 3°9.373 179.8 0.5 225.1 13.9
2002-05-03 08:01:00 51°22.701 3°9.372 181.7 0.5 226.1 13.7
2002-05-03 08:01:06 51°22.701 3°9.371 183.3 0.5 229 13.9
2002-05-03 08:01:10 51°22.7 3°9.37 184.5 0.5 231 14
2002-05-03 08:01:15 51°22.7 3°9.369 185.5 0.5 235 13.9
2002-05-03 08:01:20 51°22.699 3°9.368 186.3 0.5 233.6 13.8
2002-05-03 08:01:26 51°22.699 3°9.367 187.2 0.5 234 14
2002-05-03 08:01:31 51°22.698 3°9.366 188 0.5 232.6 14
2002-05-03 08:01:35 51°22.698 3°9.365 188.5 0.6 234.5 13.8
2002-05-03 08:01:40 51°22.697 3°9.364 189.2 0.6 235.4 14
2002-05-03 08:01:46 51°22.697 3°9.363 190.2 0.6 234.8 14
2002-05-03 08:01:51 51°22.696 3°9.361 190.7 0.6 236.8 14
2002-05-03 08:01:56 51°22.696 3°9.361 191.2 0.6 235.3 14
2002-05-03 08:02:00 51°22.695 3°9.36 192 0.6 235.9 14
2002-05-03 08:02:05 51°22.695 3°9.359 192.5 0.6 237 14
2002-05-03 08:02:10 51°22.694 3°9.357 193 0.6 239.7 14
2002-05-03 08:02:15 51°22.694 3°9.356 193.3 0.6 237.1 14
2002-05-03 08:02:20 51°22.693 3°9.355 193.8 0.6 236.8 14
2002-05-03 08:02:26 51°22.693 3°9.354 194.5 0.6 233.7 14
2002-05-03 08:02:30 51°22.692 3°9.353 194.8 0.6 235.5 14
2002-05-03 08:02:36 51°22.692 3°9.351 195.5 0.6 234.6 14
2002-05-03 08:02:40 51°22.691 3°9.35 195.8 0.7 235.7 13.9
2002-05-03 08:02:46 51°22.691 3°9.349 196.3 0.7 233.6 13.9
2002-05-03 08:02:50 51°22.69 3°9.348 196.5 0.7 232.9 13.9
2002-05-03 08:02:55 51°22.69 3°9.347 197 0.7 231.8 13.9
2002-05-03 08:03:00 51°22.689 3°9.345 197.3 0.7 233.5 13.9
2002-05-03 08:03:06 51°22.689 3°9.344 198 0.7 235.8 13.9
2002-05-03 08:03:10 51°22.688 3°9.343 198.2 0.7 235.9 13.9
2002-05-03 08:03:15 51°22.688 3°9.342 198.7 0.7 236.5 13.8
2002-05-03 08:03:20 51°22.687 3°9.341 199.2 0.7 234 13.9
2002-05-03 08:03:25 51°22.687 3°9.339 199.5 0.7 233.9 13.8
2002-05-03 08:03:30 51°22.686 3°9.338 200 0.7 234.7 13.8
2002-05-03 08:03:36 51°22.686 3°9.336 200.3 0.7 234.6 13.8
2002-05-03 08:03:40 51°22.685 3°9.335 200.7 0.7 236.1 13.8
2002-05-03 08:03:45 51°22.685 3°9.334 201 0.7 232.5 13.8
2002-05-03 08:03:50 51°22.684 3°9.332 201.2 0.8 235.2 13.8
2002-05-03 08:03:55 51°22.683 3°9.331 201.8 0.7 232.7 13.8
2002-05-03 08:04:01 51°22.683 3°9.329 202 0.8 235 13.8
2002-05-03 08:04:06 51°22.682 3°9.328 202.3 0.8 236 13.8
2002-05-03 08:04:11 51°22.681 3°9.326 202.7 0.8 237.2 13.8
2002-05-03 08:04:16 51°22.681 3°9.325 203.2 0.8 233.4 13.8
2002-05-03 08:04:20 51°22.68 3°9.324 203.2 0.8 232.7 13.9
2002-05-03 08:04:25 51°22.679 3°9.322 203.5 0.8 232.6 13.9
2002-05-03 08:04:30 51°22.679 3°9.321 203.5 0.8 232.6 13.8
2002-05-03 08:04:35 51°22.678 3°9.32 203.8 0.8 232.3 13.8
2002-05-03 08:04:40 51°22.677 3°9.318 204.3 0.8 234.3 13.9
2002-05-03 08:04:46 51°22.677 3°9.316 204.8 0.8 234 13.9
2002-05-03 08:04:51 51°22.676 3°9.315 205.2 0.8 235.1 13.9
2002-05-03 08:04:55 51°22.676 3°9.314 205.3 0.8 234.7 13.8
2002-05-03 08:05:00 51°22.675 3°9.312 205.3 0.8 234.8 13.9
2002-05-03 08:05:06 51°22.674 3°9.31 206 0.8 235.3 13.8
2002-05-03 08:05:10 51°22.674 3°9.309 206.2 0.8 235.6 13.9
2002-05-03 08:05:16 51°22.673 3°9.307 206.3 0.9 238.3 13.9
2002-05-03 08:05:20 51°22.672 3°9.306 206.7 0.9 235.3 13.9
2002-05-03 08:05:25 51°22.671 3°9.304 206.8 0.9 234.1 13.9
2002-05-03 08:05:31 51°22.671 3°9.303 207.2 0.8 232.8 13.9
2002-05-03 08:05:35 51°22.67 3°9.301 207 0.9 234.4 13.9
2002-05-03 08:05:40 51°22.669 3°9.3 207.5 0.9 235.1 13.8
2002-05-03 08:05:46 51°22.669 3°9.298 207.7 0.9 237.9 13.9
2002-05-03 08:05:51 51°22.668 3°9.296 207.7 0.9 237.2 13.9
2002-05-03 08:05:56 51°22.667 3°9.294 207.7 0.9 236.3 13.9
2002-05-03 08:06:00 51°22.667 3°9.293 208 0.9 234.4 13.9
2002-05-03 08:06:06 51°22.666 3°9.291 208.2 0.9 234.6 13.9
2002-05-03 08:06:10 51°22.665 3°9.29 208.2 0.9 233.2 13.9
2002-05-03 08:06:15 51°22.665 3°9.288 208.3 0.9 233.5 13.9
2002-05-03 08:06:20 51°22.664 3°9.287 208.3 0.9 234.2 13.9
2002-05-03 08:06:26 51°22.663 3°9.285 208.5 0.9 234.7 13.9
2002-05-03 08:06:31 51°22.662 3°9.283 208.5 0.9 232.6 13.9
2002-05-03 08:06:36 51°22.662 3°9.281 208.3 0.9 235 13.9
2002-05-03 08:06:40 51°22.661 3°9.28 208.7 0.9 235.8 13.9
2002-05-03 08:06:46 51°22.66 3°9.278 208.5 0.9 236.5 13.9
2002-05-03 08:06:50 51°22.659 3°9.277 208.7 0.9 235.8 13.9
2002-05-03 08:06:55 51°22.659 3°9.275 208.5 0.9 235.5 13.9
2002-05-03 08:07:00 51°22.658 3°9.273 208.8 0.9 236.5 13.9
2002-05-03 08:07:06 51°22.657 3°9.271 209 0.9 237.4 13.9
2002-05-03 08:07:11 51°22.656 3°9.27 209.2 0.9 234.3 13.9
2002-05-03 08:07:15 51°22.656 3°9.268 209.3 0.9 235.4 13.9
2002-05-03 08:07:20 51°22.655 3°9.266 209.3 0.9 235.2 13.9
2002-05-03 08:07:26 51°22.654 3°9.264 209.2 0.9 237.4 13.9
2002-05-03 08:07:30 51°22.654 3°9.263 209.5 0.9 235.7 13.9
2002-05-03 08:07:35 51°22.653 3°9.261 209.5 0.9 237.6 13.8
2002-05-03 08:07:41 51°22.652 3°9.259 209.8 0.9 236.8 13.9
2002-05-03 08:07:46 51°22.652 3°9.257 209.8 0.9 234.2 13.8
2002-05-03 08:07:50 51°22.651 3°9.256 209.7 0.9 236.5 13.9
2002-05-03 08:07:55 51°22.65 3°9.254 209.8 0.9 235.7 13.9
2002-05-03 08:08:00 51°22.65 3°9.252 209.7 0.9 234.5 13.9
2002-05-03 08:08:05 51°22.649 3°9.251 209.8 0.9 235.1 13.8
2002-05-03 08:08:10 51°22.648 3°9.249 210 0.9 235.2 13.9
2002-05-03 08:08:16 51°22.647 3°9.247 210.2 0.9 233.1 13.8
2002-05-03 08:08:20 51°22.647 3°9.246 210.2 1 234 13.9
2002-05-03 08:08:26 51°22.646 3°9.243 210.5 0.9 232.8 13.7
2002-05-03 08:08:31 51°22.645 3°9.241 210.2 0.9 235.1 13.4
2002-05-03 08:08:35 51°22.644 3°9.24 210.2 1 234.6 13.8
2002-05-03 08:08:40 51°22.644 3°9.238 210.5 1 237.3 13.9
2002-05-03 08:08:46 51°22.643 3°9.236 210.7 1 235.3 13.8
2002-05-03 08:08:50 51°22.642 3°9.235 210.3 1 236.5 13.8
2002-05-03 08:08:56 51°22.641 3°9.233 210.7 0.9 234.8 13.8
2002-05-03 08:09:00 51°22.64 3°9.231 210.8 1 235 13.8
2002-05-03 08:09:05 51°22.64 3°9.229 211 1 235.4 13.9
2002-05-03 08:09:10 51°22.639 3°9.228 210.8 0.9 234.4 13.8
2002-05-03 08:09:15 51°22.638 3°9.226 210.8 1 233.8 13.8
2002-05-03 08:09:21 51°22.637 3°9.224 211 1 235.8 13.8